sensor_id;sensor_type;location;lat;lon;timestamp;P1;durP1;ratioP1;P2;durP2;ratioP2
17340;SDS011;8788;49.930;8.660;2023-04-24T00:00:53;1.67;;;0.70;;
17340;SDS011;8788;49.930;8.660;2023-04-24T00:03:21;1.90;;;0.95;;
17340;SDS011;8788;49.930;8.660;2023-04-24T00:05:49;1.05;;;0.90;;
17340;SDS011;8788;49.930;8.660;2023-04-24T00:08:16;1.23;;;1.13;;
17340;SDS011;8788;49.930;8.660;2023-04-24T00:10:43;3.03;;;0.77;;
17340;SDS011;8788;49.930;8.660;2023-04-24T00:13:12;2.67;;;0.95;;
17340;SDS011;8788;49.930;8.660;2023-04-24T00:15:39;1.77;;;0.70;;
17340;SDS011;8788;49.930;8.660;2023-04-24T00:18:06;1.02;;;0.60;;
17340;SDS011;8788;49.930;8.660;2023-04-24T00:20:33;2.17;;;0.88;;
17340;SDS011;8788;49.930;8.660;2023-04-24T00:23:01;0.70;;;0.57;;
17340;SDS011;8788;49.930;8.660;2023-04-24T00:25:28;1.80;;;0.70;;
17340;SDS011;8788;49.930;8.660;2023-04-24T00:27:55;0.88;;;0.60;;
17340;SDS011;8788;49.930;8.660;2023-04-24T00:30:24;0.70;;;0.70;;
17340;SDS011;8788;49.930;8.660;2023-04-24T00:32:51;2.20;;;0.75;;
17340;SDS011;8788;49.930;8.660;2023-04-24T00:35:18;1.08;;;0.80;;
17340;SDS011;8788;49.930;8.660;2023-04-24T00:37:46;0.50;;;0.50;;
17340;SDS011;8788;49.930;8.660;2023-04-24T00:40:13;0.82;;;0.70;;
17340;SDS011;8788;49.930;8.660;2023-04-24T00:42:41;0.70;;;0.60;;
17340;SDS011;8788;49.930;8.660;2023-04-24T00:45:10;0.77;;;0.70;;
17340;SDS011;8788;49.930;8.660;2023-04-24T00:47:39;3.72;;;0.70;;
17340;SDS011;8788;49.930;8.660;2023-04-24T00:50:08;0.63;;;0.63;;
17340;SDS011;8788;49.930;8.660;2023-04-24T00:52:36;1.67;;;0.50;;
17340;SDS011;8788;49.930;8.660;2023-04-24T00:55:06;1.42;;;0.70;;
17340;SDS011;8788;49.930;8.660;2023-04-24T00:57:33;1.38;;;0.70;;
17340;SDS011;8788;49.930;8.660;2023-04-24T01:00:01;0.93;;;0.93;;
17340;SDS011;8788;49.930;8.660;2023-04-24T01:02:30;0.98;;;0.70;;
17340;SDS011;8788;49.930;8.660;2023-04-24T01:05:00;3.17;;;0.95;;
17340;SDS011;8788;49.930;8.660;2023-04-24T01:07:28;2.70;;;0.73;;
17340;SDS011;8788;49.930;8.660;2023-04-24T01:09:56;1.50;;;0.88;;
17340;SDS011;8788;49.930;8.660;2023-04-24T01:12:24;1.30;;;0.63;;
17340;SDS011;8788;49.930;8.660;2023-04-24T01:14:51;0.95;;;0.88;;
17340;SDS011;8788;49.930;8.660;2023-04-24T01:17:18;1.02;;;0.85;;
17340;SDS011;8788;49.930;8.660;2023-04-24T01:19:46;1.30;;;0.70;;
17340;SDS011;8788;49.930;8.660;2023-04-24T01:22:15;0.70;;;0.70;;
17340;SDS011;8788;49.930;8.660;2023-04-24T01:24:42;4.22;;;1.20;;
17340;SDS011;8788;49.930;8.660;2023-04-24T01:27:11;2.83;;;0.70;;
17340;SDS011;8788;49.930;8.660;2023-04-24T01:29:38;0.95;;;0.75;;
17340;SDS011;8788;49.930;8.660;2023-04-24T01:32:08;0.60;;;0.60;;
17340;SDS011;8788;49.930;8.660;2023-04-24T01:34:36;2.30;;;0.93;;
17340;SDS011;8788;49.930;8.660;2023-04-24T01:37:04;2.25;;;0.70;;
17340;SDS011;8788;49.930;8.660;2023-04-24T01:39:32;1.33;;;0.77;;
17340;SDS011;8788;49.930;8.660;2023-04-24T01:42:01;2.30;;;0.50;;
17340;SDS011;8788;49.930;8.660;2023-04-24T01:44:29;1.23;;;0.68;;
17340;SDS011;8788;49.930;8.660;2023-04-24T01:46:57;1.30;;;0.52;;
17340;SDS011;8788;49.930;8.660;2023-04-24T01:49:24;0.60;;;0.50;;
17340;SDS011;8788;49.930;8.660;2023-04-24T01:51:51;2.00;;;0.70;;
17340;SDS011;8788;49.930;8.660;2023-04-24T01:54:18;0.50;;;0.50;;
17340;SDS011;8788;49.930;8.660;2023-04-24T01:56:47;0.95;;;0.57;;
17340;SDS011;8788;49.930;8.660;2023-04-24T01:59:15;2.17;;;0.85;;
17340;SDS011;8788;49.930;8.660;2023-04-24T02:01:43;2.35;;;0.85;;
17340;SDS011;8788;49.930;8.660;2023-04-24T02:04:10;1.50;;;0.75;;
17340;SDS011;8788;49.930;8.660;2023-04-24T02:06:37;1.90;;;0.60;;
17340;SDS011;8788;49.930;8.660;2023-04-24T02:09:04;3.60;;;0.90;;
17340;SDS011;8788;49.930;8.660;2023-04-24T02:11:31;2.78;;;0.80;;
17340;SDS011;8788;49.930;8.660;2023-04-24T02:14:00;2.15;;;0.68;;
17340;SDS011;8788;49.930;8.660;2023-04-24T02:16:27;3.03;;;1.02;;
17340;SDS011;8788;49.930;8.660;2023-04-24T02:18:58;1.17;;;0.77;;
17340;SDS011;8788;49.930;8.660;2023-04-24T02:21:25;2.10;;;1.05;;
17340;SDS011;8788;49.930;8.660;2023-04-24T02:23:52;4.63;;;0.80;;
17340;SDS011;8788;49.930;8.660;2023-04-24T02:26:20;0.98;;;0.60;;
17340;SDS011;8788;49.930;8.660;2023-04-24T02:28:47;2.05;;;0.75;;
17340;SDS011;8788;49.930;8.660;2023-04-24T02:31:16;0.52;;;0.45;;
17340;SDS011;8788;49.930;8.660;2023-04-24T02:33:43;1.20;;;0.70;;
17340;SDS011;8788;49.930;8.660;2023-04-24T02:36:10;2.05;;;1.15;;
17340;SDS011;8788;49.930;8.660;2023-04-24T02:38:38;4.05;;;0.90;;
17340;SDS011;8788;49.930;8.660;2023-04-24T02:41:05;4.85;;;0.80;;
17340;SDS011;8788;49.930;8.660;2023-04-24T02:43:32;0.65;;;0.65;;
17340;SDS011;8788;49.930;8.660;2023-04-24T02:45:59;4.22;;;1.13;;
17340;SDS011;8788;49.930;8.660;2023-04-24T02:48:28;1.60;;;0.70;;
17340;SDS011;8788;49.930;8.660;2023-04-24T02:50:55;0.70;;;0.70;;
17340;SDS011;8788;49.930;8.660;2023-04-24T02:53:22;2.85;;;1.25;;
17340;SDS011;8788;49.930;8.660;2023-04-24T02:55:50;2.22;;;0.70;;
17340;SDS011;8788;49.930;8.660;2023-04-24T02:58:17;1.00;;;0.90;;
17340;SDS011;8788;49.930;8.660;2023-04-24T03:00:46;1.90;;;0.88;;
17340;SDS011;8788;49.930;8.660;2023-04-24T03:03:13;1.85;;;0.80;;
17340;SDS011;8788;49.930;8.660;2023-04-24T03:05:41;2.13;;;0.93;;
17340;SDS011;8788;49.930;8.660;2023-04-24T03:08:09;1.83;;;0.88;;
17340;SDS011;8788;49.930;8.660;2023-04-24T03:10:36;1.30;;;1.15;;
17340;SDS011;8788;49.930;8.660;2023-04-24T03:13:03;1.30;;;0.82;;
17340;SDS011;8788;49.930;8.660;2023-04-24T03:15:30;2.10;;;0.80;;
17340;SDS011;8788;49.930;8.660;2023-04-24T03:17:58;1.13;;;1.00;;
17340;SDS011;8788;49.930;8.660;2023-04-24T03:20:26;2.53;;;0.90;;
17340;SDS011;8788;49.930;8.660;2023-04-24T03:22:56;1.40;;;0.88;;
17340;SDS011;8788;49.930;8.660;2023-04-24T03:25:24;1.17;;;0.75;;
17340;SDS011;8788;49.930;8.660;2023-04-24T03:27:52;1.58;;;0.80;;
17340;SDS011;8788;49.930;8.660;2023-04-24T03:30:41;1.30;;;0.80;;
17340;SDS011;8788;49.930;8.660;2023-04-24T03:33:10;2.70;;;0.90;;
17340;SDS011;8788;49.930;8.660;2023-04-24T03:35:44;0.63;;;0.63;;
17340;SDS011;8788;49.930;8.660;2023-04-24T03:38:13;1.42;;;0.75;;
17340;SDS011;8788;49.930;8.660;2023-04-24T03:40:59;3.25;;;0.90;;
17340;SDS011;8788;49.930;8.660;2023-04-24T03:43:35;0.95;;;0.70;;
17340;SDS011;8788;49.930;8.660;2023-04-24T03:46:03;1.80;;;0.85;;
17340;SDS011;8788;49.930;8.660;2023-04-24T03:48:34;4.05;;;1.25;;
17340;SDS011;8788;49.930;8.660;2023-04-24T03:51:02;3.33;;;0.77;;
17340;SDS011;8788;49.930;8.660;2023-04-24T03:53:32;1.45;;;0.80;;
17340;SDS011;8788;49.930;8.660;2023-04-24T03:55:59;0.73;;;0.70;;
17340;SDS011;8788;49.930;8.660;2023-04-24T03:58:27;1.52;;;1.00;;
17340;SDS011;8788;49.930;8.660;2023-04-24T04:00:54;2.17;;;1.00;;
17340;SDS011;8788;49.930;8.660;2023-04-24T04:03:41;1.42;;;0.80;;
17340;SDS011;8788;49.930;8.660;2023-04-24T04:06:08;2.78;;;0.80;;
17340;SDS011;8788;49.930;8.660;2023-04-24T04:08:39;1.60;;;0.80;;
17340;SDS011;8788;49.930;8.660;2023-04-24T04:11:07;1.08;;;0.85;;
17340;SDS011;8788;49.930;8.660;2023-04-24T04:13:34;1.88;;;0.77;;
17340;SDS011;8788;49.930;8.660;2023-04-24T04:16:01;1.73;;;1.00;;
17340;SDS011;8788;49.930;8.660;2023-04-24T04:18:28;1.50;;;0.80;;
17340;SDS011;8788;49.930;8.660;2023-04-24T04:20:56;2.17;;;1.05;;
17340;SDS011;8788;49.930;8.660;2023-04-24T04:23:23;2.83;;;0.98;;
17340;SDS011;8788;49.930;8.660;2023-04-24T04:26:10;1.67;;;0.93;;
17340;SDS011;8788;49.930;8.660;2023-04-24T04:28:58;1.98;;;1.00;;
17340;SDS011;8788;49.930;8.660;2023-04-24T04:31:26;1.10;;;0.98;;
17340;SDS011;8788;49.930;8.660;2023-04-24T04:33:55;1.50;;;1.10;;
17340;SDS011;8788;49.930;8.660;2023-04-24T04:36:22;2.97;;;1.17;;
17340;SDS011;8788;49.930;8.660;2023-04-24T04:38:56;1.80;;;1.20;;
17340;SDS011;8788;49.930;8.660;2023-04-24T04:41:48;1.17;;;1.13;;
17340;SDS011;8788;49.930;8.660;2023-04-24T04:44:18;1.40;;;1.00;;
17340;SDS011;8788;49.930;8.660;2023-04-24T04:46:45;0.93;;;0.93;;
17340;SDS011;8788;49.930;8.660;2023-04-24T04:49:24;2.10;;;1.33;;
17340;SDS011;8788;49.930;8.660;2023-04-24T04:51:53;1.20;;;1.10;;
17340;SDS011;8788;49.930;8.660;2023-04-24T04:54:23;1.17;;;1.00;;
17340;SDS011;8788;49.930;8.660;2023-04-24T04:56:52;2.65;;;1.67;;
17340;SDS011;8788;49.930;8.660;2023-04-24T04:59:20;2.03;;;1.50;;
17340;SDS011;8788;49.930;8.660;2023-04-24T05:01:50;1.58;;;1.48;;
17340;SDS011;8788;49.930;8.660;2023-04-24T05:04:17;2.25;;;1.25;;
17340;SDS011;8788;49.930;8.660;2023-04-24T05:06:45;1.33;;;1.23;;
17340;SDS011;8788;49.930;8.660;2023-04-24T05:09:13;1.58;;;1.30;;
17340;SDS011;8788;49.930;8.660;2023-04-24T05:11:46;1.30;;;1.20;;
17340;SDS011;8788;49.930;8.660;2023-04-24T05:14:15;1.85;;;1.20;;
17340;SDS011;8788;49.930;8.660;2023-04-24T05:16:43;3.42;;;1.52;;
17340;SDS011;8788;49.930;8.660;2023-04-24T05:19:12;2.58;;;1.30;;
17340;SDS011;8788;49.930;8.660;2023-04-24T05:21:40;1.40;;;1.30;;
17340;SDS011;8788;49.930;8.660;2023-04-24T05:24:08;1.55;;;1.45;;
17340;SDS011;8788;49.930;8.660;2023-04-24T05:26:58;1.67;;;1.40;;
17340;SDS011;8788;49.930;8.660;2023-04-24T05:29:35;2.05;;;1.55;;
17340;SDS011;8788;49.930;8.660;2023-04-24T05:32:03;1.58;;;1.48;;
17340;SDS011;8788;49.930;8.660;2023-04-24T05:34:31;3.47;;;1.55;;
17340;SDS011;8788;49.930;8.660;2023-04-24T05:36:58;2.58;;;1.45;;
17340;SDS011;8788;49.930;8.660;2023-04-24T05:39:25;1.88;;;1.48;;
17340;SDS011;8788;49.930;8.660;2023-04-24T05:41:53;1.98;;;1.67;;
17340;SDS011;8788;49.930;8.660;2023-04-24T05:44:23;1.98;;;1.77;;
17340;SDS011;8788;49.930;8.660;2023-04-24T05:46:52;2.42;;;1.90;;
17340;SDS011;8788;49.930;8.660;2023-04-24T05:49:20;1.55;;;1.45;;
17340;SDS011;8788;49.930;8.660;2023-04-24T05:51:49;2.20;;;2.00;;
17340;SDS011;8788;49.930;8.660;2023-04-24T05:54:17;2.50;;;1.90;;
17340;SDS011;8788;49.930;8.660;2023-04-24T05:56:44;2.30;;;1.77;;
17340;SDS011;8788;49.930;8.660;2023-04-24T05:59:16;4.28;;;1.60;;
17340;SDS011;8788;49.930;8.660;2023-04-24T06:01:44;1.73;;;1.63;;
17340;SDS011;8788;49.930;8.660;2023-04-24T06:04:19;1.80;;;1.70;;
17340;SDS011;8788;49.930;8.660;2023-04-24T06:06:46;2.42;;;1.70;;
17340;SDS011;8788;49.930;8.660;2023-04-24T06:09:16;2.05;;;1.75;;
17340;SDS011;8788;49.930;8.660;2023-04-24T06:11:44;2.45;;;1.70;;
17340;SDS011;8788;49.930;8.660;2023-04-24T06:14:12;6.43;;;2.15;;
17340;SDS011;8788;49.930;8.660;2023-04-24T06:16:58;2.40;;;1.85;;
17340;SDS011;8788;49.930;8.660;2023-04-24T06:19:33;2.50;;;1.70;;
17340;SDS011;8788;49.930;8.660;2023-04-24T06:22:01;2.33;;;2.13;;
17340;SDS011;8788;49.930;8.660;2023-04-24T06:24:28;5.07;;;2.40;;
17340;SDS011;8788;49.930;8.660;2023-04-24T06:26:57;1.92;;;1.75;;
17340;SDS011;8788;49.930;8.660;2023-04-24T06:29:25;4.18;;;2.25;;
17340;SDS011;8788;49.930;8.660;2023-04-24T06:31:52;2.65;;;1.92;;
17340;SDS011;8788;49.930;8.660;2023-04-24T06:34:19;2.35;;;2.15;;
17340;SDS011;8788;49.930;8.660;2023-04-24T06:36:47;2.47;;;2.28;;
17340;SDS011;8788;49.930;8.660;2023-04-24T06:39:14;2.60;;;2.05;;
17340;SDS011;8788;49.930;8.660;2023-04-24T06:41:41;3.03;;;2.17;;
17340;SDS011;8788;49.930;8.660;2023-04-24T06:44:17;3.55;;;1.92;;
17340;SDS011;8788;49.930;8.660;2023-04-24T06:46:44;2.72;;;2.05;;
17340;SDS011;8788;49.930;8.660;2023-04-24T06:49:11;2.78;;;2.17;;
17340;SDS011;8788;49.930;8.660;2023-04-24T06:51:41;2.83;;;2.50;;
17340;SDS011;8788;49.930;8.660;2023-04-24T06:54:09;3.75;;;2.67;;
17340;SDS011;8788;49.930;8.660;2023-04-24T06:56:36;2.85;;;2.58;;
17340;SDS011;8788;49.930;8.660;2023-04-24T06:59:03;4.40;;;2.63;;
17340;SDS011;8788;49.930;8.660;2023-04-24T07:01:31;3.20;;;2.38;;
17340;SDS011;8788;49.930;8.660;2023-04-24T07:03:58;3.13;;;2.83;;
17340;SDS011;8788;49.930;8.660;2023-04-24T07:06:25;3.53;;;2.80;;
17340;SDS011;8788;49.930;8.660;2023-04-24T07:08:52;2.83;;;2.25;;
17340;SDS011;8788;49.930;8.660;2023-04-24T07:11:23;3.88;;;3.00;;
17340;SDS011;8788;49.930;8.660;2023-04-24T07:13:54;3.00;;;2.75;;
17340;SDS011;8788;49.930;8.660;2023-04-24T07:16:21;2.90;;;2.70;;
17340;SDS011;8788;49.930;8.660;2023-04-24T07:18:48;3.90;;;2.95;;
17340;SDS011;8788;49.930;8.660;2023-04-24T07:21:15;3.38;;;2.67;;
17340;SDS011;8788;49.930;8.660;2023-04-24T07:23:42;3.90;;;3.50;;
17340;SDS011;8788;49.930;8.660;2023-04-24T07:26:09;2.65;;;2.45;;
17340;SDS011;8788;49.930;8.660;2023-04-24T07:28:38;4.32;;;2.80;;
17340;SDS011;8788;49.930;8.660;2023-04-24T07:31:05;3.78;;;3.38;;
17340;SDS011;8788;49.930;8.660;2023-04-24T07:33:32;3.60;;;3.25;;
17340;SDS011;8788;49.930;8.660;2023-04-24T07:36:01;4.57;;;3.63;;
17340;SDS011;8788;49.930;8.660;2023-04-24T07:38:29;3.53;;;3.22;;
17340;SDS011;8788;49.930;8.660;2023-04-24T07:40:56;3.75;;;2.20;;
17340;SDS011;8788;49.930;8.660;2023-04-24T07:43:23;3.80;;;3.00;;
17340;SDS011;8788;49.930;8.660;2023-04-24T07:45:52;3.95;;;2.58;;
17340;SDS011;8788;49.930;8.660;2023-04-24T07:48:19;2.65;;;1.90;;
17340;SDS011;8788;49.930;8.660;2023-04-24T07:50:47;3.13;;;1.60;;
17340;SDS011;8788;49.930;8.660;2023-04-24T07:53:14;1.90;;;1.35;;
17340;SDS011;8788;49.930;8.660;2023-04-24T07:55:41;2.63;;;1.35;;
17340;SDS011;8788;49.930;8.660;2023-04-24T07:58:08;3.15;;;1.55;;
17340;SDS011;8788;49.930;8.660;2023-04-24T08:00:35;1.42;;;1.30;;
17340;SDS011;8788;49.930;8.660;2023-04-24T08:03:04;1.73;;;1.63;;
17340;SDS011;8788;49.930;8.660;2023-04-24T08:05:31;1.45;;;1.35;;
17340;SDS011;8788;49.930;8.660;2023-04-24T08:07:58;1.92;;;1.42;;
17340;SDS011;8788;49.930;8.660;2023-04-24T08:10:25;2.38;;;1.30;;
17340;SDS011;8788;49.930;8.660;2023-04-24T08:12:52;1.65;;;1.13;;
17340;SDS011;8788;49.930;8.660;2023-04-24T08:15:20;1.73;;;1.63;;
17340;SDS011;8788;49.930;8.660;2023-04-24T08:17:47;1.65;;;1.45;;
17340;SDS011;8788;49.930;8.660;2023-04-24T08:20:16;2.45;;;1.30;;
17340;SDS011;8788;49.930;8.660;2023-04-24T08:22:43;2.30;;;1.45;;
17340;SDS011;8788;49.930;8.660;2023-04-24T08:25:12;3.33;;;1.75;;
17340;SDS011;8788;49.930;8.660;2023-04-24T08:27:39;1.33;;;1.23;;
17340;SDS011;8788;49.930;8.660;2023-04-24T08:30:07;1.45;;;1.35;;
17340;SDS011;8788;49.930;8.660;2023-04-24T08:32:34;1.38;;;1.17;;
17340;SDS011;8788;49.930;8.660;2023-04-24T08:35:02;2.25;;;1.38;;
17340;SDS011;8788;49.930;8.660;2023-04-24T08:37:31;1.35;;;1.25;;
17340;SDS011;8788;49.930;8.660;2023-04-24T08:39:59;1.70;;;1.60;;
17340;SDS011;8788;49.930;8.660;2023-04-24T08:42:27;1.77;;;1.50;;
17340;SDS011;8788;49.930;8.660;2023-04-24T08:44:58;1.58;;;1.48;;
17340;SDS011;8788;49.930;8.660;2023-04-24T08:47:25;1.50;;;1.40;;
17340;SDS011;8788;49.930;8.660;2023-04-24T08:49:53;2.13;;;1.17;;
17340;SDS011;8788;49.930;8.660;2023-04-24T08:52:21;1.42;;;1.33;;
17340;SDS011;8788;49.930;8.660;2023-04-24T08:54:50;1.55;;;1.40;;
17340;SDS011;8788;49.930;8.660;2023-04-24T08:57:18;4.68;;;1.42;;
17340;SDS011;8788;49.930;8.660;2023-04-24T08:59:46;2.45;;;1.90;;
17340;SDS011;8788;49.930;8.660;2023-04-24T09:02:13;1.33;;;1.23;;
17340;SDS011;8788;49.930;8.660;2023-04-24T09:04:41;2.03;;;1.80;;
17340;SDS011;8788;49.930;8.660;2023-04-24T09:07:10;1.65;;;1.52;;
17340;SDS011;8788;49.930;8.660;2023-04-24T09:09:40;2.05;;;1.70;;
17340;SDS011;8788;49.930;8.660;2023-04-24T09:12:09;1.67;;;1.58;;
17340;SDS011;8788;49.930;8.660;2023-04-24T09:14:37;2.03;;;1.92;;
17340;SDS011;8788;49.930;8.660;2023-04-24T09:17:07;1.90;;;1.50;;
17340;SDS011;8788;49.930;8.660;2023-04-24T09:19:35;1.35;;;1.25;;
17340;SDS011;8788;49.930;8.660;2023-04-24T09:22:04;2.30;;;1.50;;
17340;SDS011;8788;49.930;8.660;2023-04-24T09:24:33;2.47;;;1.38;;
17340;SDS011;8788;49.930;8.660;2023-04-24T09:27:01;1.40;;;1.30;;
17340;SDS011;8788;49.930;8.660;2023-04-24T09:29:30;1.15;;;1.10;;
17340;SDS011;8788;49.930;8.660;2023-04-24T09:31:58;2.45;;;1.50;;
17340;SDS011;8788;49.930;8.660;2023-04-24T09:34:26;1.02;;;0.90;;
17340;SDS011;8788;49.930;8.660;2023-04-24T09:36:53;1.67;;;1.55;;
17340;SDS011;8788;49.930;8.660;2023-04-24T09:39:21;1.60;;;1.50;;
17340;SDS011;8788;49.930;8.660;2023-04-24T09:41:48;0.95;;;0.85;;
17340;SDS011;8788;49.930;8.660;2023-04-24T09:44:17;1.98;;;1.27;;
17340;SDS011;8788;49.930;8.660;2023-04-24T09:46:50;1.98;;;1.38;;
17340;SDS011;8788;49.930;8.660;2023-04-24T09:49:21;1.60;;;1.13;;
17340;SDS011;8788;49.930;8.660;2023-04-24T09:51:49;1.58;;;1.30;;
17340;SDS011;8788;49.930;8.660;2023-04-24T09:54:17;3.42;;;1.15;;
17340;SDS011;8788;49.930;8.660;2023-04-24T09:56:46;2.65;;;0.98;;
17340;SDS011;8788;49.930;8.660;2023-04-24T09:59:15;1.88;;;1.20;;
17340;SDS011;8788;49.930;8.660;2023-04-24T10:01:42;1.33;;;1.05;;
17340;SDS011;8788;49.930;8.660;2023-04-24T10:04:18;1.20;;;1.10;;
17340;SDS011;8788;49.930;8.660;2023-04-24T10:06:48;2.03;;;1.60;;
17340;SDS011;8788;49.930;8.660;2023-04-24T10:09:16;1.90;;;1.35;;
17340;SDS011;8788;49.930;8.660;2023-04-24T10:11:45;2.00;;;1.30;;
17340;SDS011;8788;49.930;8.660;2023-04-24T10:14:13;1.10;;;1.10;;
17340;SDS011;8788;49.930;8.660;2023-04-24T10:16:41;1.20;;;1.05;;
17340;SDS011;8788;49.930;8.660;2023-04-24T10:19:09;1.58;;;1.48;;
17340;SDS011;8788;49.930;8.660;2023-04-24T10:21:39;2.15;;;1.02;;
17340;SDS011;8788;49.930;8.660;2023-04-24T10:24:11;2.65;;;1.10;;
17340;SDS011;8788;49.930;8.660;2023-04-24T10:26:39;1.75;;;1.63;;
17340;SDS011;8788;49.930;8.660;2023-04-24T10:29:07;2.75;;;1.30;;
17340;SDS011;8788;49.930;8.660;2023-04-24T10:31:37;2.85;;;1.73;;
17340;SDS011;8788;49.930;8.660;2023-04-24T10:34:05;1.98;;;1.55;;
17340;SDS011;8788;49.930;8.660;2023-04-24T10:36:32;1.50;;;1.40;;
17340;SDS011;8788;49.930;8.660;2023-04-24T10:39:03;2.55;;;1.20;;
17340;SDS011;8788;49.930;8.660;2023-04-24T10:41:36;1.50;;;1.40;;
17340;SDS011;8788;49.930;8.660;2023-04-24T10:44:04;3.85;;;1.83;;
17340;SDS011;8788;49.930;8.660;2023-04-24T10:46:32;2.83;;;1.50;;
17340;SDS011;8788;49.930;8.660;2023-04-24T10:49:00;2.00;;;1.20;;
17340;SDS011;8788;49.930;8.660;2023-04-24T10:54:25;2.83;;;1.33;;
17340;SDS011;8788;49.930;8.660;2023-04-24T10:56:53;1.58;;;1.48;;
17340;SDS011;8788;49.930;8.660;2023-04-24T11:00:16;1.50;;;1.40;;
17340;SDS011;8788;49.930;8.660;2023-04-24T11:02:46;2.33;;;1.80;;
17340;SDS011;8788;49.930;8.660;2023-04-24T11:05:15;2.53;;;1.33;;
17340;SDS011;8788;49.930;8.660;2023-04-24T11:10:41;1.45;;;1.35;;
17340;SDS011;8788;49.930;8.660;2023-04-24T11:13:10;2.83;;;1.67;;
17340;SDS011;8788;49.930;8.660;2023-04-24T11:15:41;2.00;;;1.80;;
17340;SDS011;8788;49.930;8.660;2023-04-24T11:18:12;2.30;;;1.80;;
17340;SDS011;8788;49.930;8.660;2023-04-24T11:20:41;3.08;;;1.50;;
17340;SDS011;8788;49.930;8.660;2023-04-24T11:23:09;4.50;;;1.80;;
17340;SDS011;8788;49.930;8.660;2023-04-24T11:25:40;2.33;;;1.88;;
17340;SDS011;8788;49.930;8.660;2023-04-24T11:28:08;2.40;;;2.13;;
17340;SDS011;8788;49.930;8.660;2023-04-24T11:30:42;1.77;;;1.67;;
17340;SDS011;8788;49.930;8.660;2023-04-24T11:33:09;2.60;;;2.00;;
17340;SDS011;8788;49.930;8.660;2023-04-24T11:35:39;2.00;;;1.88;;
17340;SDS011;8788;49.930;8.660;2023-04-24T11:38:07;3.40;;;1.67;;
17340;SDS011;8788;49.930;8.660;2023-04-24T11:40:34;1.73;;;1.63;;
17340;SDS011;8788;49.930;8.660;2023-04-24T11:43:03;2.13;;;1.60;;
17340;SDS011;8788;49.930;8.660;2023-04-24T11:45:30;1.85;;;1.75;;
17340;SDS011;8788;49.930;8.660;2023-04-24T11:47:58;1.95;;;1.85;;
17340;SDS011;8788;49.930;8.660;2023-04-24T11:50:25;2.25;;;1.83;;
17340;SDS011;8788;49.930;8.660;2023-04-24T11:52:54;1.90;;;1.70;;
17340;SDS011;8788;49.930;8.660;2023-04-24T11:55:23;1.25;;;1.10;;
17340;SDS011;8788;49.930;8.660;2023-04-24T11:57:52;2.25;;;1.10;;
17340;SDS011;8788;49.930;8.660;2023-04-24T12:00:23;1.23;;;1.13;;
17340;SDS011;8788;49.930;8.660;2023-04-24T12:02:51;1.30;;;1.20;;
17340;SDS011;8788;49.930;8.660;2023-04-24T12:05:29;2.10;;;1.30;;
17340;SDS011;8788;49.930;8.660;2023-04-24T12:07:57;2.33;;;1.30;;
17340;SDS011;8788;49.930;8.660;2023-04-24T12:10:24;1.52;;;1.10;;
17340;SDS011;8788;49.930;8.660;2023-04-24T12:12:53;2.45;;;1.65;;
17340;SDS011;8788;49.930;8.660;2023-04-24T12:15:22;1.42;;;1.33;;
17340;SDS011;8788;49.930;8.660;2023-04-24T12:17:50;1.20;;;1.17;;
17340;SDS011;8788;49.930;8.660;2023-04-24T12:20:23;1.40;;;1.30;;
17340;SDS011;8788;49.930;8.660;2023-04-24T12:22:51;1.17;;;1.08;;
17340;SDS011;8788;49.930;8.660;2023-04-24T12:25:20;1.58;;;1.33;;
17340;SDS011;8788;49.930;8.660;2023-04-24T12:27:51;1.95;;;1.70;;
17340;SDS011;8788;49.930;8.660;2023-04-24T12:30:20;1.98;;;1.80;;
17340;SDS011;8788;49.930;8.660;2023-04-24T12:32:53;1.63;;;1.30;;
17340;SDS011;8788;49.930;8.660;2023-04-24T12:35:22;2.33;;;2.03;;
17340;SDS011;8788;49.930;8.660;2023-04-24T12:37:49;1.80;;;1.70;;
17340;SDS011;8788;49.930;8.660;2023-04-24T12:40:17;1.83;;;1.45;;
17340;SDS011;8788;49.930;8.660;2023-04-24T12:42:45;4.85;;;2.42;;
17340;SDS011;8788;49.930;8.660;2023-04-24T12:45:14;2.60;;;2.40;;
17340;SDS011;8788;49.930;8.660;2023-04-24T12:47:44;2.70;;;2.40;;
17340;SDS011;8788;49.930;8.660;2023-04-24T12:50:12;2.50;;;2.30;;
17340;SDS011;8788;49.930;8.660;2023-04-24T12:52:41;2.72;;;2.53;;
17340;SDS011;8788;49.930;8.660;2023-04-24T12:55:09;2.03;;;1.83;;
17340;SDS011;8788;49.930;8.660;2023-04-24T12:57:37;1.50;;;1.40;;
17340;SDS011;8788;49.930;8.660;2023-04-24T13:00:06;2.55;;;1.40;;
17340;SDS011;8788;49.930;8.660;2023-04-24T13:02:34;1.98;;;1.77;;
17340;SDS011;8788;49.930;8.660;2023-04-24T13:05:03;3.40;;;1.60;;
17340;SDS011;8788;49.930;8.660;2023-04-24T13:07:30;2.40;;;1.70;;
17340;SDS011;8788;49.930;8.660;2023-04-24T13:09:57;2.25;;;1.98;;
17340;SDS011;8788;49.930;8.660;2023-04-24T13:12:24;2.15;;;1.95;;
17340;SDS011;8788;49.930;8.660;2023-04-24T13:14:52;2.35;;;2.13;;
17340;SDS011;8788;49.930;8.660;2023-04-24T13:17:19;3.15;;;1.92;;
17340;SDS011;8788;49.930;8.660;2023-04-24T13:19:49;3.95;;;2.10;;
17340;SDS011;8788;49.930;8.660;2023-04-24T13:22:18;2.78;;;1.80;;
17340;SDS011;8788;49.930;8.660;2023-04-24T13:24:45;3.35;;;2.45;;
17340;SDS011;8788;49.930;8.660;2023-04-24T13:27:13;4.13;;;2.45;;
17340;SDS011;8788;49.930;8.660;2023-04-24T13:29:40;3.55;;;2.10;;
17340;SDS011;8788;49.930;8.660;2023-04-24T13:32:08;3.28;;;2.08;;
17340;SDS011;8788;49.930;8.660;2023-04-24T13:34:35;2.08;;;1.92;;
17340;SDS011;8788;49.930;8.660;2023-04-24T13:37:03;3.05;;;2.00;;
17340;SDS011;8788;49.930;8.660;2023-04-24T13:39:32;4.55;;;1.80;;
17340;SDS011;8788;49.930;8.660;2023-04-24T13:41:59;1.92;;;1.67;;
17340;SDS011;8788;49.930;8.660;2023-04-24T13:44:26;2.20;;;2.00;;
17340;SDS011;8788;49.930;8.660;2023-04-24T13:46:53;4.70;;;2.25;;
17340;SDS011;8788;49.930;8.660;2023-04-24T13:49:22;2.15;;;1.50;;
17340;SDS011;8788;49.930;8.660;2023-04-24T13:51:51;2.10;;;1.90;;
17340;SDS011;8788;49.930;8.660;2023-04-24T13:54:19;3.28;;;2.13;;
17340;SDS011;8788;49.930;8.660;2023-04-24T13:56:47;2.80;;;2.15;;
17340;SDS011;8788;49.930;8.660;2023-04-24T13:59:14;2.58;;;1.77;;
17340;SDS011;8788;49.930;8.660;2023-04-24T14:01:41;2.20;;;1.95;;
17340;SDS011;8788;49.930;8.660;2023-04-24T14:04:10;2.85;;;2.00;;
17340;SDS011;8788;49.930;8.660;2023-04-24T14:06:37;4.47;;;2.38;;
17340;SDS011;8788;49.930;8.660;2023-04-24T14:09:04;2.17;;;1.98;;
17340;SDS011;8788;49.930;8.660;2023-04-24T14:11:32;2.60;;;2.40;;
17340;SDS011;8788;49.930;8.660;2023-04-24T14:14:01;3.90;;;2.13;;
17340;SDS011;8788;49.930;8.660;2023-04-24T14:16:29;1.80;;;1.70;;
17340;SDS011;8788;49.930;8.660;2023-04-24T14:18:56;4.57;;;2.10;;
17340;SDS011;8788;49.930;8.660;2023-04-24T14:21:24;3.58;;;2.15;;
17340;SDS011;8788;49.930;8.660;2023-04-24T14:23:51;3.63;;;2.35;;
17340;SDS011;8788;49.930;8.660;2023-04-24T14:26:18;3.10;;;2.38;;
17340;SDS011;8788;49.930;8.660;2023-04-24T14:28:46;5.10;;;2.00;;
17340;SDS011;8788;49.930;8.660;2023-04-24T14:31:14;1.73;;;1.63;;
17340;SDS011;8788;49.930;8.660;2023-04-24T14:33:41;3.03;;;2.08;;
17340;SDS011;8788;49.930;8.660;2023-04-24T14:36:08;3.70;;;2.00;;
17340;SDS011;8788;49.930;8.660;2023-04-24T14:38:35;3.00;;;2.00;;
17340;SDS011;8788;49.930;8.660;2023-04-24T14:41:02;3.00;;;2.00;;
17340;SDS011;8788;49.930;8.660;2023-04-24T14:43:34;4.15;;;1.98;;
17340;SDS011;8788;49.930;8.660;2023-04-24T14:46:01;2.45;;;1.88;;
17340;SDS011;8788;49.930;8.660;2023-04-24T14:48:30;2.83;;;2.28;;
17340;SDS011;8788;49.930;8.660;2023-04-24T14:50:57;2.75;;;2.42;;
17340;SDS011;8788;49.930;8.660;2023-04-24T14:53:24;3.15;;;1.70;;
17340;SDS011;8788;49.930;8.660;2023-04-24T14:55:51;3.88;;;2.03;;
17340;SDS011;8788;49.930;8.660;2023-04-24T14:58:18;3.17;;;2.05;;
17340;SDS011;8788;49.930;8.660;2023-04-24T15:00:45;3.83;;;2.20;;
17340;SDS011;8788;49.930;8.660;2023-04-24T15:03:15;2.85;;;2.08;;
17340;SDS011;8788;49.930;8.660;2023-04-24T15:05:43;2.45;;;2.03;;
17340;SDS011;8788;49.930;8.660;2023-04-24T15:08:11;3.35;;;2.65;;
17340;SDS011;8788;49.930;8.660;2023-04-24T15:10:38;2.50;;;2.30;;
17340;SDS011;8788;49.930;8.660;2023-04-24T15:13:05;3.55;;;2.25;;
17340;SDS011;8788;49.930;8.660;2023-04-24T15:15:32;3.00;;;2.20;;